Time;durP1;ratioP1;P1;durP2;ratioP2;P2;SDS_P1;SDS_P2;PMS_P1;PMS_P2;Temp;Humidity;BMP_temperature;BMP_pressure;BME280_temperature;BME280_humidity;BME280_pressure;Samples;Min_cycle;Max_cycle;Signal;HPM_P1;HPM_P2
2021/06/12 00:01:37;;;;;;;9.85;8.90;;;18.50;99.90;;;;;;5034157;28;20292;-47
2021/06/12 00:04:05;;;;;;;12.32;11.23;;;18.40;99.90;;;;;;5034172;28;20222;-44
2021/06/12 00:06:32;;;;;;;12.90;11.60;;;18.40;99.90;;;;;;5033794;28;20208;-45
2021/06/12 00:09:00;;;;;;;9.52;8.73;;;18.40;99.90;;;;;;5034139;28;20217;-44
2021/06/12 00:11:27;;;;;;;10.65;8.90;;;18.30;99.90;;;;;;5033800;28;20642;-44
2021/06/12 00:13:55;;;;;;;11.15;9.18;;;18.30;99.90;;;;;;5033851;28;20219;-45
2021/06/12 00:16:24;;;;;;;10.63;9.65;;;18.20;99.90;;;;;;5033756;28;20229;-47
2021/06/12 00:18:51;;;;;;;9.50;8.70;;;18.20;99.90;;;;;;5034168;28;20284;-47
2021/06/12 00:21:18;;;;;;;10.25;9.35;;;18.20;99.90;;;;;;5033765;28;20333;-46
2021/06/12 00:23:46;;;;;;;9.27;8.48;;;18.10;99.90;;;;;;5033855;28;20244;-44
2021/06/12 00:26:13;;;;;;;9.35;8.65;;;18.10;99.90;;;;;;5033499;28;20554;-45
2021/06/12 00:28:41;;;;;;;10.35;9.45;;;18.00;99.90;;;;;;5033506;28;20311;-45
2021/06/12 00:31:08;;;;;;;9.57;8.73;;;18.00;99.90;;;;;;5033390;28;20219;-44
2021/06/12 00:33:37;;;;;;;10.18;9.18;;;18.00;99.90;;;;;;5033142;28;20238;-46
2021/06/12 00:36:05;;;;;;;11.48;10.35;;;18.00;99.90;;;;;;5032871;28;20675;-46
2021/06/12 00:38:32;;;;;;;11.77;10.57;;;17.90;99.90;;;;;;5033447;28;20204;-52
2021/06/12 00:41:00;;;;;;;10.40;9.38;;;17.90;99.90;;;;;;5033210;28;20737;-49
2021/06/12 00:43:27;;;;;;;9.98;9.00;;;17.90;99.90;;;;;;5033460;28;20209;-50
2021/06/12 00:45:55;;;;;;;10.32;9.32;;;17.90;99.90;;;;;;5033300;28;20278;-44
2021/06/12 00:48:22;;;;;;;11.27;9.85;;;17.90;99.90;;;;;;5033370;28;20205;-46
2021/06/12 00:50:51;;;;;;;8.90;8.20;;;17.90;99.90;;;;;;5033471;28;20548;-44
2021/06/12 00:53:19;;;;;;;10.63;9.68;;;17.80;99.90;;;;;;5033926;28;20213;-44
2021/06/12 00:55:47;;;;;;;10.82;8.98;;;17.90;99.90;;;;;;5033122;28;20657;-44
2021/06/12 00:58:16;;;;;;;10.60;9.70;;;17.80;99.90;;;;;;5033238;28;20239;-45
2021/06/12 01:00:43;;;;;;;10.20;9.30;;;17.80;99.90;;;;;;5032975;28;20573;-44
2021/06/12 01:03:13;;;;;;;10.88;9.88;;;17.80;99.90;;;;;;5032912;28;20251;-44
2021/06/12 01:05:40;;;;;;;10.48;9.65;;;17.80;99.90;;;;;;5033062;28;20239;-44
2021/06/12 01:08:09;;;;;;;9.48;8.70;;;17.70;99.90;;;;;;5033069;28;20271;-44
2021/06/12 01:10:37;;;;;;;10.13;9.38;;;17.70;99.90;;;;;;5032940;28;20334;-44
2021/06/12 01:13:13;;;;;;;10.57;9.77;;;17.70;99.90;;;;;;5032520;28;20208;-43
2021/06/12 01:15:51;;;;;;;9.57;8.77;;;17.70;99.90;;;;;;5032801;28;20215;-43
2021/06/12 01:18:20;;;;;;;11.15;10.15;;;17.60;99.90;;;;;;5032623;28;20224;-43
2021/06/12 01:21:04;;;;;;;11.15;10.07;;;17.60;99.90;;;;;;5032802;28;20340;-44
2021/06/12 01:24:11;;;;;;;11.35;10.35;;;17.60;99.90;;;;;;5032630;28;20240;-43
2021/06/12 01:27:11;;;;;;;11.98;10.38;;;17.60;99.90;;;;;;5032871;28;20287;-44
2021/06/12 01:29:59;;;;;;;11.35;10.23;;;17.60;99.90;;;;;;5032745;28;20367;-44
2021/06/12 01:32:28;;;;;;;12.25;11.05;;;17.60;99.90;;;;;;5032709;28;20545;-45
2021/06/12 01:34:59;;;;;;;11.68;10.63;;;17.50;99.90;;;;;;5032531;28;20746;-43
2021/06/12 01:37:27;;;;;;;15.80;12.18;;;17.50;99.90;;;;;;5032477;28;20247;-44
2021/06/12 01:39:56;;;;;;;11.88;10.88;;;17.50;99.90;;;;;;5032449;28;20672;-44
2021/06/12 01:42:24;;;;;;;11.88;10.88;;;17.50;99.90;;;;;;5032285;28;20295;-45
2021/06/12 01:44:52;;;;;;;13.45;12.02;;;17.50;99.90;;;;;;5032535;28;20299;-48
2021/06/12 01:47:22;;;;;;;13.65;12.27;;;17.50;99.90;;;;;;5031529;28;20208;-43
2021/06/12 01:49:51;;;;;;;13.77;12.57;;;17.50;99.90;;;;;;5032461;28;20295;-44
2021/06/12 01:52:19;;;;;;;11.90;10.80;;;17.40;99.90;;;;;;5032264;28;20291;-43
2021/06/12 01:54:49;;;;;;;12.50;11.38;;;17.40;99.90;;;;;;5032072;28;20220;-44
2021/06/12 01:57:18;;;;;;;12.55;11.57;;;17.40;99.90;;;;;;5032010;28;20238;-43
2021/06/12 01:59:49;;;;;;;13.50;12.20;;;17.40;99.90;;;;;;5032279;28;20239;-44
2021/06/12 02:02:18;;;;;;;14.05;12.65;;;17.30;99.90;;;;;;5032224;28;20219;-44
2021/06/12 02:04:50;;;;;;;11.93;10.77;;;17.20;99.90;;;;;;5032142;28;20718;-44
2021/06/12 02:07:18;;;;;;;12.30;11.27;;;17.20;99.90;;;;;;5032088;28;20209;-43
2021/06/12 02:09:47;;;;;;;13.85;12.43;;;17.20;99.90;;;;;;5032392;28;20222;-46
2021/06/12 02:12:15;;;;;;;13.77;12.57;;;17.10;99.90;;;;;;5032265;28;20209;-46
2021/06/12 02:14:43;;;;;;;13.20;12.05;;;17.10;99.90;;;;;;5032060;28;20636;-44
2021/06/12 02:17:12;;;;;;;13.18;11.98;;;17.10;99.90;;;;;;5032008;28;20225;-44
2021/06/12 02:19:41;;;;;;;12.80;11.18;;;17.00;99.90;;;;;;5031988;28;20212;-45
2021/06/12 02:22:10;;;;;;;13.85;12.50;;;17.00;99.90;;;;;;5031777;28;20237;-45
2021/06/12 02:24:38;;;;;;;12.55;11.43;;;17.00;99.90;;;;;;5032125;28;20204;-47
2021/06/12 02:27:08;;;;;;;13.32;11.27;;;16.90;99.90;;;;;;5031988;28;20304;-43
2021/06/12 02:29:37;;;;;;;12.43;11.20;;;16.90;99.90;;;;;;5031935;28;20630;-44
2021/06/12 02:32:08;;;;;;;12.20;11.02;;;16.90;99.90;;;;;;5031869;28;20234;-44
2021/06/12 02:34:37;;;;;;;11.82;10.63;;;16.80;99.90;;;;;;5031498;28;20671;-45
2021/06/12 02:37:06;;;;;;;12.95;11.85;;;16.90;99.90;;;;;;5031957;28;20311;-43
2021/06/12 02:39:35;;;;;;;12.55;11.40;;;16.80;99.90;;;;;;5031878;28;20296;-45
2021/06/12 02:42:04;;;;;;;12.65;11.65;;;16.80;99.90;;;;;;5031741;28;20235;-45
2021/06/12 02:44:32;;;;;;;13.88;12.15;;;16.80;99.90;;;;;;5031769;28;20223;-44
2021/06/12 02:47:05;;;;;;;12.18;10.93;;;16.70;99.90;;;;;;5031604;28;20213;-45
2021/06/12 02:49:35;;;;;;;13.00;11.70;;;16.70;99.90;;;;;;5031741;28;20215;-44
2021/06/12 02:52:06;;;;;;;12.57;11.52;;;16.70;99.90;;;;;;5031349;28;20544;-43
2021/06/12 02:54:38;;;;;;;13.77;12.50;;;16.60;99.90;;;;;;5031749;28;20208;-43
2021/06/12 02:57:09;;;;;;;13.57;11.38;;;16.60;99.90;;;;;;5031469;28;20247;-44
2021/06/12 02:59:39;;;;;;;12.73;11.60;;;16.60;99.90;;;;;;5035893;28;20577;-44
2021/06/12 03:02:07;;;;;;;13.13;12.07;;;16.50;99.90;;;;;;5035800;28;20215;-43
2021/06/12 03:04:36;;;;;;;13.18;11.95;;;16.50;99.90;;;;;;5035520;28;20213;-44
2021/06/12 03:07:05;;;;;;;12.57;11.38;;;16.60;99.90;;;;;;5035572;28;20209;-43
2021/06/12 03:09:35;;;;;;;14.30;11.52;;;16.50;99.90;;;;;;5036137;28;20248;-45
2021/06/12 03:12:04;;;;;;;12.35;11.27;;;16.50;99.90;;;;;;5035243;28;20771;-45
2021/06/12 03:14:33;;;;;;;12.52;11.38;;;16.50;99.90;;;;;;5035503;28;20322;-45
2021/06/12 03:17:00;;;;;;;12.73;11.55;;;16.50;99.90;;;;;;5035026;28;20205;-43
2021/06/12 03:19:30;;;;;;;12.77;11.77;;;16.50;99.90;;;;;;5035465;28;20255;-42
2021/06/12 03:21:59;;;;;;;12.48;11.32;;;16.50;99.90;;;;;;5035124;28;20774;-44
2021/06/12 03:24:28;;;;;;;12.10;11.20;;;16.50;99.90;;;;;;5034956;28;20205;-45
2021/06/12 03:26:59;;;;;;;13.00;11.70;;;16.50;99.90;;;;;;5035019;28;20208;-49
2021/06/12 03:29:28;;;;;;;12.10;11.00;;;16.50;99.90;;;;;;5035069;28;20315;-44
2021/06/12 03:31:56;;;;;;;12.20;11.10;;;16.50;99.90;;;;;;5035093;28;20209;-44
2021/06/12 03:34:24;;;;;;;11.75;10.55;;;16.50;99.90;;;;;;5034948;28;20295;-47
2021/06/12 03:36:52;;;;;;;12.63;11.05;;;16.50;99.90;;;;;;5034887;28;20209;-46
2021/06/12 03:39:20;;;;;;;12.45;11.23;;;16.50;99.90;;;;;;5034870;28;20233;-46
2021/06/12 03:41:47;;;;;;;11.63;10.63;;;16.50;99.90;;;;;;5034918;28;20291;-44
2021/06/12 03:44:16;;;;;;;11.40;10.27;;;16.50;99.90;;;;;;5034811;28;20209;-44
2021/06/12 03:46:47;;;;;;;11.45;10.32;;;16.50;99.90;;;;;;5034584;28;20303;-44
2021/06/12 03:49:16;;;;;;;12.45;11.23;;;16.60;99.90;;;;;;5034551;28;20211;-47
2021/06/12 03:51:44;;;;;;;13.48;12.27;;;16.60;99.90;;;;;;5034735;28;20240;-49
2021/06/12 03:54:12;;;;;;;12.50;11.27;;;16.60;99.90;;;;;;5034879;28;20215;-45
2021/06/12 03:56:40;;;;;;;11.73;10.55;;;16.60;99.90;;;;;;5035002;28;20227;-48
2021/06/12 03:59:11;;;;;;;12.70;11.50;;;16.60;99.90;;;;;;5034816;28;20287;-48
2021/06/12 04:01:42;;;;;;;11.77;10.85;;;16.60;99.90;;;;;;5034270;28;20212;-46
2021/06/12 04:04:09;;;;;;;10.82;9.95;;;16.60;99.90;;;;;;5033885;28;20291;-46
2021/06/12 04:06:37;;;;;;;12.10;10.90;;;16.60;99.90;;;;;;5034090;28;20241;-46
2021/06/12 04:09:04;;;;;;;10.82;9.93;;;16.60;99.90;;;;;;5033156;28;20446;-44
2021/06/12 04:11:32;;;;;;;11.43;10.43;;;16.70;99.90;;;;;;5034523;28;20213;-46
2021/06/12 04:14:02;;;;;;;13.20;12.00;;;16.70;99.90;;;;;;5034365;28;20208;-43
2021/06/12 04:16:30;;;;;;;12.05;11.05;;;16.70;99.90;;;;;;5033828;28;20267;-44
2021/06/12 04:19:00;;;;;;;12.43;11.32;;;16.70;99.90;;;;;;5035405;28;20240;-44
2021/06/12 04:21:28;;;;;;;12.60;10.82;;;16.80;99.90;;;;;;5033902;28;20243;-44
2021/06/12 04:23:55;;;;;;;11.82;10.63;;;16.90;99.90;;;;;;5034039;28;20221;-46
2021/06/12 04:26:23;;;;;;;11.98;10.88;;;16.90;99.90;;;;;;5034192;28;20240;-46
2021/06/12 04:28:51;;;;;;;12.65;11.43;;;16.90;99.90;;;;;;5033904;28;20213;-47
2021/06/12 04:31:19;;;;;;;11.93;10.73;;;17.00;99.90;;;;;;5033663;28;20245;-43
2021/06/12 04:33:46;;;;;;;12.18;11.05;;;17.10;99.90;;;;;;5033844;28;20706;-45
2021/06/12 04:36:15;;;;;;;13.70;10.80;;;17.10;99.90;;;;;;5033704;28;20307;-44
2021/06/12 04:38:43;;;;;;;11.48;10.32;;;17.20;99.90;;;;;;5033770;28;20239;-47
2021/06/12 04:41:10;;;;;;;11.70;10.73;;;17.20;99.90;;;;;;5033674;28;20296;-44
2021/06/12 04:43:37;;;;;;;11.48;10.57;;;17.20;99.90;;;;;;5033466;28;20300;-44
2021/06/12 04:46:05;;;;;;;11.52;10.10;;;17.20;99.90;;;;;;5033756;28;20244;-44
2021/06/12 04:48:32;;;;;;;11.20;10.15;;;17.30;99.90;;;;;;5033570;28;20254;-44
2021/06/12 04:51:00;;;;;;;10.80;9.90;;;17.40;99.90;;;;;;5033316;28;20259;-44
2021/06/12 04:53:30;;;;;;;12.13;11.02;;;17.60;99.90;;;;;;5033650;28;20248;-43
2021/06/12 04:55:57;;;;;;;10.90;9.80;;;17.70;99.90;;;;;;5033412;28;20208;-43
2021/06/12 04:58:25;;;;;;;10.90;9.43;;;17.80;99.90;;;;;;5033263;28;20358;-44
2021/06/12 05:00:53;;;;;;;11.10;10.10;;;17.90;99.90;;;;;;5033302;28;20213;-45
2021/06/12 05:03:20;;;;;;;10.77;9.80;;;18.10;99.90;;;;;;5033351;28;20244;-44
2021/06/12 05:05:48;;;;;;;10.55;9.55;;;18.30;99.90;;;;;;5033123;28;20208;-44
2021/06/12 05:08:16;;;;;;;9.80;9.00;;;18.40;99.90;;;;;;5033197;28;20211;-44
2021/06/12 05:10:45;;;;;;;11.23;10.32;;;18.60;99.90;;;;;;5032932;28;20213;-45
2021/06/12 05:13:12;;;;;;;11.43;10.43;;;18.70;99.90;;;;;;5033207;28;20211;-44
2021/06/12 05:15:40;;;;;;;9.70;8.90;;;19.00;99.90;;;;;;5033043;28;20227;-45
2021/06/12 05:18:07;;;;;;;10.23;9.18;;;19.30;99.90;;;;;;5033167;28;20233;-45
2021/06/12 05:20:36;;;;;;;10.35;9.45;;;19.50;99.90;;;;;;5032552;28;20239;-44
2021/06/12 05:23:05;;;;;;;10.00;9.10;;;19.60;99.90;;;;;;5032438;28;20209;-45
2021/06/12 05:25:34;;;;;;;9.68;8.98;;;19.80;99.90;;;;;;5032945;28;20291;-44
2021/06/12 05:28:04;;;;;;;11.02;9.35;;;19.90;99.90;;;;;;5032928;28;20205;-44
2021/06/12 05:30:31;;;;;;;9.88;9.02;;;20.00;99.90;;;;;;5032923;28;20255;-46
2021/06/12 05:32:58;;;;;;;10.15;9.05;;;20.20;99.90;;;;;;5032754;28;20638;-46
2021/06/12 05:35:27;;;;;;;9.32;8.50;;;20.30;99.90;;;;;;5032533;28;20312;-47
2021/06/12 05:37:54;;;;;;;9.07;8.30;;;20.50;99.90;;;;;;5032590;28;20235;-49
2021/06/12 05:40:22;;;;;;;9.70;8.75;;;20.60;99.90;;;;;;5032750;28;20606;-44
2021/06/12 05:42:49;;;;;;;10.10;8.68;;;20.70;99.90;;;;;;5032776;28;20311;-45
2021/06/12 05:45:18;;;;;;;9.38;8.20;;;20.70;99.90;;;;;;5032665;28;20771;-44
2021/06/12 05:47:45;;;;;;;9.60;8.75;;;20.60;99.90;;;;;;5032656;28;20295;-45
2021/06/12 05:50:13;;;;;;;10.35;9.38;;;20.60;99.90;;;;;;5032277;28;20211;-47
2021/06/12 05:52:40;;;;;;;9.07;8.38;;;20.60;99.90;;;;;;5032284;28;20312;-46
2021/06/12 05:55:08;;;;;;;10.73;9.15;;;20.50;99.90;;;;;;5032388;28;20213;-44
2021/06/12 05:57:36;;;;;;;9.88;8.88;;;20.50;99.90;;;;;;5032400;28;20220;-45
2021/06/12 06:00:05;;;;;;;9.43;8.73;;;20.50;99.90;;;;;;5032042;28;20323;-45
2021/06/12 06:02:34;;;;;;;9.63;8.93;;;20.50;99.90;;;;;;5031998;28;20255;-44
2021/06/12 06:05:01;;;;;;;8.93;8.23;;;20.50;99.90;;;;;;5031897;28;20687;-44
2021/06/12 06:07:29;;;;;;;9.93;9.07;;;20.50;99.90;;;;;;5032047;28;20239;-44
2021/06/12 06:09:57;;;;;;;9.88;9.18;;;20.50;99.90;;;;;;5031892;28;20288;-49
2021/06/12 06:12:25;;;;;;;8.90;8.07;;;20.60;99.90;;;;;;5031903;28;20727;-49
2021/06/12 06:14:52;;;;;;;10.43;9.45;;;20.70;99.90;;;;;;5031726;28;20215;-50
2021/06/12 06:17:20;;;;;;;9.68;8.88;;;20.80;99.90;;;;;;5031633;28;20299;-51
2021/06/12 06:19:49;;;;;;;10.68;9.75;;;20.90;99.80;;;;;;5031874;28;20232;-46
2021/06/12 06:22:16;;;;;;;10.32;9.52;;;21.10;99.60;;;;;;5031688;28;20428;-46
2021/06/12 06:24:44;;;;;;;10.63;9.82;;;21.30;99.30;;;;;;5031614;28;20205;-44
2021/06/12 06:27:11;;;;;;;9.75;8.95;;;21.40;99.00;;;;;;5031695;28;20291;-45
2021/06/12 06:29:39;;;;;;;9.75;8.73;;;21.50;98.80;;;;;;5031246;28;20364;-43
2021/06/12 06:32:07;;;;;;;10.30;9.40;;;21.50;98.70;;;;;;5031744;28;20266;-45
2021/06/12 06:34:35;;;;;;;9.63;8.93;;;21.50;98.60;;;;;;5035410;28;20299;-43
2021/06/12 06:37:05;;;;;;;9.15;8.38;;;21.50;98.50;;;;;;5035409;28;20210;-46
2021/06/12 06:39:33;;;;;;;9.45;8.60;;;21.50;98.30;;;;;;5035289;28;20270;-43
2021/06/12 06:42:02;;;;;;;10.60;9.80;;;21.50;98.30;;;;;;5035405;28;20304;-45
2021/06/12 06:44:32;;;;;;;10.02;9.23;;;21.60;98.50;;;;;;5035326;28;20303;-44
2021/06/12 06:46:59;;;;;;;10.18;9.05;;;21.60;98.10;;;;;;5035143;28;20654;-45
2021/06/12 06:49:27;;;;;;;9.38;8.57;;;21.60;98.00;;;;;;5035074;28;20235;-43
2021/06/12 06:51:54;;;;;;;9.23;8.52;;;21.60;98.00;;;;;;5035273;28;20292;-43
2021/06/12 06:54:23;;;;;;;9.90;9.15;;;21.70;98.00;;;;;;5035472;28;20216;-43
2021/06/12 06:56:51;;;;;;;9.80;8.98;;;21.80;97.90;;;;;;5035084;28;20239;-45
2021/06/12 06:59:18;;;;;;;10.25;9.32;;;21.90;97.60;;;;;;5035492;28;20233;-44
2021/06/12 07:01:46;;;;;;;10.90;10.00;;;22.00;97.40;;;;;;5035312;28;20312;-45
2021/06/12 07:04:14;;;;;;;11.30;8.73;;;22.10;97.20;;;;;;5034958;28;20285;-47
2021/06/12 07:06:42;;;;;;;10.85;9.82;;;22.10;97.00;;;;;;5034930;28;20205;-45
2021/06/12 07:09:09;;;;;;;9.95;9.00;;;22.10;96.90;;;;;;5035001;28;20209;-45
2021/06/12 07:11:40;;;;;;;9.50;8.60;;;22.20;96.70;;;;;;5035190;28;20295;-45
2021/06/12 07:14:08;;;;;;;9.88;9.07;;;22.30;96.60;;;;;;5034766;28;20550;-49
2021/06/12 07:16:35;;;;;;;11.00;9.30;;;22.40;96.40;;;;;;5035203;28;20587;-45
2021/06/12 07:19:03;;;;;;;9.43;8.73;;;22.50;96.30;;;;;;5034890;28;20231;-48
2021/06/12 07:21:31;;;;;;;9.55;8.75;;;22.60;96.10;;;;;;5034751;28;20252;-43
2021/06/12 07:23:58;;;;;;;9.25;8.45;;;22.60;96.00;;;;;;5034899;28;20232;-43
2021/06/12 07:26:26;;;;;;;8.98;8.07;;;22.80;96.00;;;;;;5034691;28;20304;-48
2021/06/12 07:28:54;;;;;;;8.73;7.80;;;22.90;95.60;;;;;;5034739;28;20201;-44
2021/06/12 07:31:35;;;;;;;9.00;8.23;;;23.00;95.40;;;;;;5034512;28;20255;-44
2021/06/12 07:34:03;;;;;;;8.35;7.65;;;23.10;95.30;;;;;;5034412;28;20208;-46
2021/06/12 07:36:30;;;;;;;9.50;8.70;;;23.20;95.20;;;;;;5034428;28;20295;-44
2021/06/12 07:38:58;;;;;;;9.10;8.35;;;23.30;95.10;;;;;;5034532;28;20260;-46
2021/06/12 07:41:26;;;;;;;8.27;7.68;;;23.20;95.20;;;;;;5034054;28;20212;-44
2021/06/12 07:43:55;;;;;;;8.55;7.95;;;23.10;95.30;;;;;;5034066;28;20205;-44
2021/06/12 07:46:23;;;;;;;9.43;8.73;;;23.20;95.30;;;;;;5034075;28;20367;-45
2021/06/12 07:48:50;;;;;;;10.02;8.82;;;23.20;95.20;;;;;;5033945;28;20260;-46
2021/06/12 07:51:19;;;;;;;9.75;8.95;;;23.40;95.30;;;;;;5033605;28;20392;-46
2021/06/12 07:53:46;;;;;;;9.57;8.73;;;23.50;94.80;;;;;;5033775;28;20296;-46
2021/06/12 07:56:14;;;;;;;8.90;8.15;;;23.70;95.00;;;;;;5033891;28;20219;-51
2021/06/12 07:58:41;;;;;;;9.65;8.95;;;23.80;94.60;;;;;;5033851;28;20711;-46
2021/06/12 08:01:10;;;;;;;10.00;8.73;;;23.80;94.50;;;;;;5034058;28;20303;-46
2021/06/12 08:03:37;;;;;;;11.27;9.50;;;23.80;94.50;;;;;;5033946;28;21032;-45
2021/06/12 08:06:05;;;;;;;10.13;9.18;;;23.80;94.50;;;;;;5033975;28;20248;-44
2021/06/12 08:08:32;;;;;;;8.52;7.82;;;23.80;94.40;;;;;;5034033;28;20292;-43
2021/06/12 08:11:00;;;;;;;8.25;7.55;;;24.00;94.40;;;;;;5033971;28;20358;-43
2021/06/12 08:13:28;;;;;;;8.65;8.02;;;24.20;93.90;;;;;;5033960;28;20307;-43
2021/06/12 08:15:55;;;;;;;8.15;7.60;;;24.30;93.60;;;;;;5033932;28;20244;-44
2021/06/12 08:18:24;;;;;;;8.75;7.95;;;24.40;93.20;;;;;;5034010;28;20239;-43
2021/06/12 08:20:52;;;;;;;8.00;7.40;;;24.60;92.90;;;;;;5033695;28;20244;-43
2021/06/12 08:23:20;;;;;;;8.02;7.32;;;24.70;92.70;;;;;;5033946;28;20227;-44
2021/06/12 08:25:47;;;;;;;8.32;7.53;;;24.90;92.80;;;;;;5033865;28;20303;-43
2021/06/12 08:28:15;;;;;;;8.45;7.50;;;25.00;92.30;;;;;;5033773;28;20217;-48
2021/06/12 08:30:42;;;;;;;7.60;7.03;;;25.00;92.00;;;;;;5033604;28;20295;-46
2021/06/12 08:33:10;;;;;;;11.25;10.07;;;24.90;91.80;;;;;;5034039;28;20696;-46
2021/06/12 08:35:40;;;;;;;10.45;8.30;;;24.90;91.80;;;;;;5033824;28;20288;-46
2021/06/12 08:38:08;;;;;;;9.50;8.10;;;24.90;91.70;;;;;;5033565;28;20289;-45
2021/06/12 08:40:36;;;;;;;7.88;7.28;;;24.90;91.40;;;;;;5033437;28;20229;-45
2021/06/12 08:43:05;;;;;;;8.25;7.65;;;25.00;91.20;;;;;;5033485;28;20213;-46
2021/06/12 08:45:33;;;;;;;9.65;7.78;;;25.20;91.00;;;;;;5033579;28;20678;-44
2021/06/12 08:48:03;;;;;;;38.13;26.90;;;25.40;90.80;;;;;;5033474;28;20208;-46
2021/06/12 08:50:31;;;;;;;14.32;10.18;;;25.40;90.50;;;;;;5033439;28;20207;-49
2021/06/12 08:52:59;;;;;;;7.68;7.07;;;25.50;90.40;;;;;;5033554;28;20213;-46
2021/06/12 08:55:39;;;;;;;6.85;6.40;;;25.50;90.40;;;;;;5032720;28;20204;-48
2021/06/12 08:58:07;;;;;;;7.32;6.60;;;25.40;90.40;;;;;;5033217;28;20252;-47
2021/06/12 09:00:34;;;;;;;6.85;6.40;;;25.50;90.50;;;;;;5033209;28;20232;-46
2021/06/12 09:03:10;;;;;;;7.68;6.97;;;25.60;90.50;;;;;;5033284;28;20236;-48
2021/06/12 09:05:40;;;;;;;7.40;6.20;;;25.60;90.30;;;;;;5033360;28;20615;-46
2021/06/12 09:08:11;;;;;;;7.53;6.95;;;25.70;90.40;;;;;;5033114;28;20319;-47
2021/06/12 09:10:51;;;;;;;7.63;6.85;;;25.80;90.30;;;;;;5033379;28;20205;-46
2021/06/12 09:13:39;;;;;;;8.75;8.05;;;26.00;90.20;;;;;;5033227;28;20247;-46
2021/06/12 09:16:08;;;;;;;7.38;6.68;;;26.00;90.20;;;;;;5032818;28;20303;-45
2021/06/12 09:18:38;;;;;;;6.50;6.10;;;26.10;90.30;;;;;;5032643;28;20205;-49
2021/06/12 09:21:08;;;;;;;6.70;6.10;;;26.10;90.30;;;;;;5032897;28;20241;-47
2021/06/12 09:23:42;;;;;;;6.85;6.20;;;26.20;90.00;;;;;;5032901;28;20303;-45
2021/06/12 09:26:10;;;;;;;7.72;7.03;;;26.30;89.10;;;;;;5033013;28;20667;-44
2021/06/12 09:28:49;;;;;;;6.53;5.93;;;26.30;88.90;;;;;;5032796;28;20300;-48
2021/06/12 09:31:22;;;;;;;7.10;6.35;;;26.20;88.20;;;;;;5033165;28;20259;-45
2021/06/12 09:33:52;;;;;;;6.97;6.28;;;26.00;88.80;;;;;;5032917;28;20219;-45
2021/06/12 09:36:20;;;;;;;5.88;5.38;;;26.00;89.00;;;;;;5033188;28;20300;-44
2021/06/12 09:38:49;;;;;;;5.43;5.13;;;26.10;88.60;;;;;;5032662;28;20251;-46
2021/06/12 09:41:24;;;;;;;5.75;5.10;;;26.20;88.30;;;;;;5032362;28;20279;-46
2021/06/12 09:43:53;;;;;;;5.80;5.30;;;26.20;86.10;;;;;;5032550;28;20208;-46
2021/06/12 09:46:43;;;;;;;4.97;4.68;;;26.20;86.70;;;;;;5032113;28;20212;-45
2021/06/12 09:49:14;;;;;;;4.80;4.50;;;26.30;85.90;;;;;;5032116;28;20209;-43
2021/06/12 09:52:01;;;;;;;5.57;5.10;;;26.40;85.80;;;;;;5032310;28;20295;-43
2021/06/12 09:54:41;;;;;;;5.18;4.68;;;26.60;85.20;;;;;;5032491;28;20224;-46
2021/06/12 09:57:10;;;;;;;5.05;4.60;;;26.70;85.00;;;;;;5032251;28;20209;-44
2021/06/12 09:59:39;;;;;;;6.13;4.50;;;26.80;84.50;;;;;;5032288;28;20799;-44
2021/06/12 10:02:07;;;;;;;5.03;4.63;;;26.90;83.90;;;;;;5032437;28;20655;-44
2021/06/12 10:04:35;;;;;;;4.75;4.20;;;27.00;83.50;;;;;;5032020;28;20304;-45
2021/06/12 10:07:02;;;;;;;4.70;4.30;;;27.20;83.00;;;;;;5032510;28;20295;-43
2021/06/12 10:09:30;;;;;;;5.68;5.15;;;27.30;81.90;;;;;;5031432;28;20204;-43
2021/06/12 10:12:02;;;;;;;4.95;4.55;;;27.30;80.80;;;;;;5032623;28;20208;-44
2021/06/12 10:14:30;;;;;;;5.00;4.60;;;27.30;81.20;;;;;;5033748;28;20263;-44
2021/06/12 10:16:58;;;;;;;4.95;4.55;;;27.20;81.20;;;;;;5031778;28;20347;-45
2021/06/12 10:19:27;;;;;;;5.47;5.07;;;27.30;81.00;;;;;;5031731;28;20217;-43
2021/06/12 10:21:54;;;;;;;6.68;5.00;;;27.40;80.70;;;;;;5031791;28;20306;-43
2021/06/12 10:24:23;;;;;;;5.40;4.90;;;27.50;80.50;;;;;;5031899;28;20219;-43
2021/06/12 10:26:50;;;;;;;5.47;5.03;;;27.60;82.40;;;;;;5031868;28;20209;-44
2021/06/12 10:29:20;;;;;;;7.75;5.45;;;27.70;78.60;;;;;;5031705;28;20311;-44
2021/06/12 10:31:47;;;;;;;5.40;4.90;;;27.90;77.80;;;;;;5031686;28;20567;-46
2021/06/12 10:34:15;;;;;;;4.90;4.40;;;27.90;77.30;;;;;;5031842;28;20209;-46
2021/06/12 10:36:57;;;;;;;5.97;4.68;;;27.80;76.80;;;;;;5031646;28;20617;-46
2021/06/12 10:39:26;;;;;;;5.30;4.93;;;27.90;76.40;;;;;;5031604;28;20299;-48
2021/06/12 10:42:15;;;;;;;5.18;4.60;;;27.90;76.50;;;;;;5031420;28;20218;-52
2021/06/12 10:44:46;;;;;;;5.00;4.60;;;27.90;75.70;;;;;;5031594;28;20219;-47
2021/06/12 10:47:13;;;;;;;5.93;5.22;;;27.80;75.90;;;;;;5031635;28;20236;-46
2021/06/12 10:49:41;;;;;;;5.43;5.07;;;27.80;75.50;;;;;;5031907;28;20239;-48
2021/06/12 10:52:10;;;;;;;4.97;4.60;;;28.00;74.70;;;;;;5031470;28;20205;-48
2021/06/12 10:54:38;;;;;;;5.85;5.35;;;28.20;73.10;;;;;;5031383;28;20300;-47
2021/06/12 10:57:17;;;;;;;4.60;4.30;;;28.40;72.60;;;;;;5031744;28;20232;-47
2021/06/12 10:59:50;;;;;;;5.40;5.00;;;28.40;71.70;;;;;;5031596;28;20620;-46
2021/06/12 11:02:24;;;;;;;5.70;5.13;;;28.30;71.90;;;;;;5031495;28;20734;-45
2021/06/12 11:04:55;;;;;;;5.60;5.10;;;28.20;72.40;;;;;;5031487;28;20213;-47
2021/06/12 11:07:31;;;;;;;5.55;5.15;;;28.20;72.50;;;;;;5031655;28;20303;-45
2021/06/12 11:10:24;;;;;;;5.20;4.90;;;28.40;72.30;;;;;;5031900;28;20295;-44
2021/06/12 11:12:53;;;;;;;5.20;4.70;;;28.60;71.30;;;;;;5031960;28;20296;-45
2021/06/12 11:15:34;;;;;;;5.45;4.90;;;28.60;71.50;;;;;;5031504;28;20291;-47
2021/06/12 11:18:19;;;;;;;5.55;4.53;;;28.70;71.00;;;;;;5031798;28;20215;-48
2021/06/12 11:20:48;;;;;;;5.15;4.82;;;28.80;70.50;;;;;;5035014;28;20596;-46
2021/06/12 11:23:19;;;;;;;4.78;4.38;;;28.60;70.90;;;;;;5035159;28;20216;-46
2021/06/12 11:25:55;;;;;;;5.57;5.13;;;28.40;71.10;;;;;;5035040;28;20315;-46
2021/06/12 11:28:36;;;;;;;5.18;4.80;;;28.40;71.70;;;;;;5034918;28;20723;-47
2021/06/12 11:31:25;;;;;;;4.82;4.43;;;28.70;72.20;;;;;;5034854;28;20291;-45
2021/06/12 11:34:20;;;;;;;5.20;4.80;;;28.90;69.10;;;;;;5034754;28;20658;-46
2021/06/12 11:37:14;;;;;;;5.45;5.05;;;28.90;68.60;;;;;;5034841;28;20712;-46
2021/06/12 11:39:49;;;;;;;5.47;4.35;;;29.00;69.20;;;;;;5035086;28;20347;-46
2021/06/12 11:42:24;;;;;;;4.68;4.38;;;29.00;68.90;;;;;;5034340;28;20274;-49
2021/06/12 11:45:16;;;;;;;6.70;5.63;;;28.90;69.20;;;;;;5034749;28;20209;-49
2021/06/12 11:47:46;;;;;;;6.05;5.47;;;28.60;69.80;;;;;;5035241;28;20246;-46
2021/06/12 11:50:16;;;;;;;6.90;4.95;;;28.30;70.80;;;;;;5036036;28;20205;-46
2021/06/12 11:52:57;;;;;;;5.82;5.22;;;28.10;71.30;;;;;;5035738;28;20215;-47
2021/06/12 11:55:28;;;;;;;6.57;5.50;;;27.80;71.70;;;;;;5037044;28;20590;-50
2021/06/12 11:57:59;;;;;;;5.72;5.32;;;27.60;73.00;;;;;;5037067;28;20255;-49
2021/06/12 12:00:31;;;;;;;6.72;6.13;;;27.30;74.50;;;;;;5035322;28;20235;-47
2021/06/12 12:03:04;;;;;;;7.97;5.30;;;27.10;75.80;;;;;;5035045;28;20304;-43
2021/06/12 12:05:33;;;;;;;6.03;5.43;;;27.00;76.50;;;;;;5034336;28;20327;-46
2021/06/12 12:08:02;;;;;;;5.32;4.95;;;27.10;76.20;;;;;;5035061;28;20215;-46
2021/06/12 12:10:30;;;;;;;5.75;5.35;;;27.20;75.60;;;;;;5034724;28;20721;-47
2021/06/12 12:12:59;;;;;;;5.32;4.93;;;27.30;75.00;;;;;;5035417;28;20300;-50
2021/06/12 12:15:41;;;;;;;5.38;4.90;;;27.50;74.40;;;;;;5035567;28;20208;-45
2021/06/12 12:18:11;;;;;;;6.07;5.47;;;27.70;73.20;;;;;;5034918;28;20208;-44
2021/06/12 12:20:41;;;;;;;5.00;4.70;;;27.80;72.80;;;;;;5033858;28;20236;-44
2021/06/12 12:23:23;;;;;;;6.03;5.63;;;27.90;72.40;;;;;;5034826;28;20244;-44
2021/06/12 12:26:03;;;;;;;5.80;5.30;;;27.80;71.80;;;;;;5035032;28;20300;-48
2021/06/12 12:28:31;;;;;;;6.07;5.47;;;27.80;72.40;;;;;;5035302;28;20212;-46
2021/06/12 12:31:08;;;;;;;6.10;5.55;;;27.80;72.40;;;;;;5033855;28;20207;-47
2021/06/12 12:33:47;;;;;;;6.00;5.47;;;27.80;72.30;;;;;;5034161;28;20515;-47
2021/06/12 12:36:15;;;;;;;5.53;5.03;;;27.90;72.50;;;;;;5034163;28;20266;-48
2021/06/12 12:38:52;;;;;;;5.30;4.97;;;28.20;72.00;;;;;;5033833;28;20244;-43
2021/06/12 12:41:20;;;;;;;6.75;5.20;;;28.40;71.50;;;;;;5034238;28;20259;-43
2021/06/12 12:43:47;;;;;;;6.10;5.40;;;28.40;71.40;;;;;;5033118;28;20676;-47
2021/06/12 12:46:15;;;;;;;6.28;5.68;;;28.40;71.30;;;;;;5033526;28;20255;-44
2021/06/12 12:48:42;;;;;;;5.72;4.70;;;28.30;71.40;;;;;;5033666;28;20227;-46
2021/06/12 12:51:11;;;;;;;6.25;5.03;;;28.10;71.70;;;;;;5033154;28;20236;-48
2021/06/12 12:53:39;;;;;;;7.30;5.10;;;27.90;71.90;;;;;;5033507;28;20223;-48